createdAt,value
2024-05-09T00:04:07.942Z,100490.69
2024-05-09T00:09:12.005Z,100487.88
2024-05-09T00:14:15.740Z,100489.16
2024-05-09T00:19:19.700Z,100484.19
2024-05-09T00:24:23.475Z,100489.03
2024-05-09T00:29:27.416Z,100491.19
2024-05-09T00:34:31.635Z,100481.31
2024-05-09T00:39:35.315Z,100493.97
2024-05-09T00:44:39.093Z,100491.66
2024-05-09T00:49:42.979Z,100499.13
2024-05-09T00:54:47.065Z,100493.31
2024-05-09T00:59:51.752Z,100492.13
2024-05-09T01:04:55.904Z,100486.66
2024-05-09T01:09:59.648Z,100483.38
2024-05-09T01:15:03.464Z,100487.88
2024-05-09T01:20:10.886Z,100489.03
2024-05-09T01:25:22.547Z,100475.41
2024-05-09T01:30:33.348Z,100486.06
2024-05-09T01:35:41.869Z,100489.75
2024-05-09T01:40:48.362Z,100486.44
2024-05-09T01:45:51.841Z,100489.31
2024-05-09T01:50:55.536Z,100493.97
2024-05-09T01:55:59.330Z,100483.00
2024-05-09T02:01:03.163Z,100488.91
2024-05-09T02:06:08.305Z,100484.28
2024-05-09T02:11:12.452Z,100486.66
2024-05-09T02:16:21.685Z,100480.16
2024-05-09T02:21:30.722Z,100497.16
2024-05-09T02:26:34.525Z,100490.41
2024-05-09T02:31:49.993Z,100494.09
2024-05-09T02:36:56.231Z,100478.88
2024-05-09T02:42:00.339Z,100483.06
2024-05-09T02:47:04.800Z,100488.03
2024-05-09T02:52:08.619Z,100483.56
2024-05-09T02:57:12.198Z,100483.25
2024-05-09T03:02:15.774Z,100473.16
2024-05-09T03:07:20.315Z,100489.84
2024-05-09T03:12:23.922Z,100476.06
2024-05-09T03:17:27.708Z,100492.69
2024-05-09T03:22:31.619Z,100485.22
2024-05-09T03:27:38.185Z,100498.72
2024-05-09T03:32:44.297Z,100483.91
2024-05-09T03:37:48.082Z,100479.28
2024-05-09T03:42:51.782Z,100488.09
2024-05-09T03:47:55.762Z,100492.88
2024-05-09T03:52:59.688Z,100497.38
2024-05-09T03:58:03.840Z,100482.22
2024-05-09T04:03:10.527Z,100493.53
2024-05-09T04:08:16.260Z,100503.00
2024-05-09T04:13:19.935Z,100500.97
2024-05-09T04:18:23.704Z,100506.41
2024-05-09T04:23:27.509Z,100502.34
2024-05-09T04:28:31.204Z,100513.41
2024-05-09T04:33:35.190Z,100515.47
2024-05-09T04:38:39.067Z,100507.28
2024-05-09T04:43:42.820Z,100522.88
2024-05-09T04:48:46.718Z,100516.72
2024-05-09T04:53:50.346Z,100530.00
2024-05-09T04:58:54.051Z,100541.50
2024-05-09T05:03:59.256Z,100541.69
2024-05-09T05:09:03.398Z,100546.13
2024-05-09T05:14:07.463Z,100535.16
2024-05-09T05:19:13.500Z,100538.84
2024-05-09T05:24:18.687Z,100544.47
2024-05-09T05:29:22.465Z,100553.91
2024-05-09T05:34:26.230Z,100556.50
2024-05-09T05:39:29.937Z,100565.44
2024-05-09T05:44:33.653Z,100566.88
2024-05-09T05:49:37.648Z,100561.63
2024-05-09T05:54:41.494Z,100552.91
2024-05-09T05:59:45.230Z,100560.66
2024-05-09T06:04:49.299Z,100571.56
2024-05-09T06:09:53.188Z,100566.22
2024-05-09T06:14:56.958Z,100569.59
2024-05-09T06:20:00.632Z,100576.72
2024-05-09T06:25:04.947Z,100582.84
2024-05-09T06:30:14.409Z,100589.94
2024-05-09T06:35:24.310Z,100572.25
2024-05-09T06:40:36.347Z,100589.03
2024-05-09T06:45:42.667Z,100578.13
2024-05-09T06:50:46.570Z,100592.41
2024-05-09T06:55:50.407Z,100592.56
2024-05-09T07:00:54.174Z,100601.84
2024-05-09T07:05:57.875Z,100591.66
2024-05-09T07:11:01.747Z,100586.44
2024-05-09T07:16:05.469Z,100587.91
2024-05-09T07:21:09.328Z,100586.09
2024-05-09T07:26:13.408Z,100597.22
2024-05-09T07:31:17.320Z,100591.59
2024-05-09T07:36:21.084Z,100586.97
2024-05-09T07:41:25.356Z,100587.09
2024-05-09T07:47:36.880Z,100574.81
2024-05-09T07:53:21.629Z,100574.28
2024-05-09T07:57:17.449Z,100570.16
2024-05-09T08:02:24.341Z,100581.91
2024-05-09T08:07:27.854Z,100580.25
2024-05-09T08:12:31.860Z,100581.88
2024-05-09T08:17:35.575Z,100577.31
2024-05-09T08:22:39.295Z,100560.31
2024-05-09T08:27:43.062Z,100572.31
2024-05-09T08:32:48.333Z,100571.06
2024-05-09T08:37:53.586Z,100562.31
2024-05-09T08:42:58.136Z,100569.69
2024-05-09T08:48:07.664Z,100573.72
2024-05-09T08:53:11.609Z,100575.56
2024-05-09T08:58:19.926Z,100576.75
2024-05-09T09:03:32.974Z,100573.19
2024-05-09T09:08:39.587Z,100555.97
2024-05-09T09:13:43.362Z,100570.06
2024-05-09T09:18:47.394Z,100569.31
2024-05-09T09:23:51.246Z,100556.88
2024-05-09T09:29:01.942Z,100567.38
2024-05-09T09:34:09.233Z,100561.13
2024-05-09T09:39:17.425Z,100551.44
2024-05-09T09:44:22.290Z,100553.31
2024-05-09T09:49:33.410Z,100553.16
2024-05-09T09:54:37.153Z,100554.91
2024-05-09T09:59:46.804Z,100555.91
2024-05-09T10:04:51.520Z,100554.47
2024-05-09T10:09:56.499Z,100560.25
2024-05-09T10:15:09.106Z,100545.69
2024-05-09T10:20:21.324Z,100541.97
2024-05-09T10:25:28.616Z,100528.00
2024-05-09T10:30:36.140Z,100530.09
2024-05-09T10:35:53.833Z,100537.53
2024-05-09T10:40:59.075Z,100514.94
2024-05-09T10:46:04.180Z,100504.63
2024-05-09T10:51:09.025Z,100509.75
2024-05-09T10:56:17.114Z,100507.31
2024-05-09T11:01:21.378Z,100502.13
2024-05-09T11:06:25.900Z,100505.91
2024-05-09T11:11:29.782Z,100506.53
2024-05-09T11:16:33.470Z,100498.88
2024-05-09T11:21:37.184Z,100493.03
2024-05-09T11:26:41.045Z,100494.22
2024-05-09T11:31:48.576Z,100487.16
2024-05-09T11:36:52.448Z,100489.38
2024-05-09T11:41:57.400Z,100478.56
2024-05-09T11:47:01.042Z,100470.69
2024-05-09T11:52:05.195Z,100472.38
2024-05-09T11:57:09.627Z,100459.88
2024-05-09T12:02:13.613Z,100459.59
2024-05-09T12:07:21.579Z,100451.53
2024-05-09T12:12:25.286Z,100445.84
2024-05-09T12:17:29.062Z,100440.50
2024-05-09T12:22:32.819Z,100438.72
2024-05-09T12:27:37.369Z,100426.25
2024-05-09T12:32:41.213Z,100437.59
2024-05-09T12:37:45.009Z,100427.47
2024-05-09T12:42:49.655Z,100434.47
2024-05-09T12:47:53.546Z,100425.06
2024-05-09T12:52:57.320Z,100417.44
2024-05-09T12:58:01.359Z,100417.44
2024-05-09T13:03:06.389Z,100410.38
2024-05-09T13:08:10.442Z,100422.34
2024-05-09T13:13:14.720Z,100406.22
2024-05-09T13:18:18.645Z,100396.31
2024-05-09T13:23:22.310Z,100410.88
2024-05-09T13:28:26.743Z,100393.25
2024-05-09T13:33:30.661Z,100378.81
2024-05-09T13:38:34.511Z,100386.75
2024-05-09T13:43:38.893Z,100398.56
2024-05-09T13:48:42.626Z,100384.75
2024-05-09T13:53:46.166Z,100385.53
2024-05-09T13:58:51.275Z,100375.13
2024-05-09T14:03:54.990Z,100377.31
2024-05-09T14:08:59.028Z,100360.31
2024-05-09T14:14:03.179Z,100380.63
2024-05-09T14:19:07.181Z,100358.38
2024-05-09T14:24:10.775Z,100354.50
2024-05-09T14:29:14.528Z,100377.91
2024-05-09T14:34:18.368Z,100361.97
2024-05-09T14:39:22.236Z,100367.59
2024-05-09T14:44:25.729Z,100361.94
2024-05-09T14:49:29.443Z,100344.66
2024-05-09T14:54:32.978Z,100354.69
2024-05-09T14:59:36.788Z,100341.13
2024-05-09T15:04:40.738Z,100350.75
2024-05-09T15:09:47.006Z,100353.06
2024-05-09T15:14:50.570Z,100342.50
2024-05-09T15:19:54.404Z,100336.41
2024-05-09T15:24:58.150Z,100330.81
2024-05-09T15:30:05.607Z,100323.47
2024-05-09T15:35:12.250Z,100329.28
2024-05-09T15:40:26.019Z,100309.63
2024-05-09T15:45:40.268Z,100332.25
2024-05-09T15:50:44.910Z,100327.03
2024-05-09T15:55:49.137Z,100309.50
2024-05-09T16:00:52.997Z,100338.38
2024-05-09T16:05:58.552Z,100334.00
2024-05-09T16:11:03.023Z,100326.84
2024-05-09T16:16:07.226Z,100334.91
2024-05-09T16:21:11.101Z,100331.13
2024-05-09T16:26:14.907Z,100322.38
2024-05-09T16:31:18.644Z,100328.91
2024-05-09T16:36:22.348Z,100328.88
2024-05-09T16:41:26.704Z,100323.41
2024-05-09T16:46:31.429Z,100320.41
2024-05-09T16:51:34.942Z,100326.97
2024-05-09T16:56:39.016Z,100332.03
2024-05-09T17:01:42.782Z,100331.34
2024-05-09T17:06:46.842Z,100323.97
2024-05-09T17:11:50.781Z,100338.38
2024-05-09T17:16:54.481Z,100336.69
2024-05-09T17:21:58.267Z,100350.78
2024-05-09T17:27:01.916Z,100342.97
2024-05-09T17:32:06.796Z,100364.63
2024-05-09T17:37:10.885Z,100366.91
2024-05-09T17:42:14.806Z,100362.88
2024-05-09T17:47:18.698Z,100371.91
2024-05-09T17:52:22.386Z,100355.16
2024-05-09T17:57:26.820Z,100379.69
2024-05-09T18:02:30.832Z,100382.69
2024-05-09T18:07:35.309Z,100384.75
2024-05-09T18:12:39.183Z,100389.97
2024-05-09T18:17:43.059Z,100398.94
2024-05-09T18:22:46.918Z,100410.31
2024-05-09T18:27:50.855Z,100405.78
2024-05-09T18:32:54.886Z,100433.25
2024-05-09T18:37:58.833Z,100430.13
2024-05-09T18:43:03.472Z,100435.06
2024-05-09T18:48:12.167Z,100444.06
2024-05-09T18:53:16.266Z,100438.38
2024-05-09T18:58:20.569Z,100462.03
2024-05-09T19:03:24.462Z,100464.59
2024-05-09T19:08:28.644Z,100462.22
2024-05-09T19:13:35.707Z,100474.34
2024-05-09T19:18:39.787Z,100479.00
2024-05-09T19:23:50.510Z,100467.06
2024-05-09T19:28:58.130Z,100484.53
2024-05-09T19:34:02.649Z,100473.66
2024-05-09T19:39:16.533Z,100497.16
2024-05-09T19:44:20.484Z,100492.16
2024-05-09T19:49:24.466Z,100503.47
2024-05-09T19:54:28.681Z,100517.97
2024-05-09T19:59:33.217Z,100523.69
2024-05-09T20:04:37.124Z,100506.75
2024-05-09T20:09:44.181Z,100516.56
2024-05-09T20:14:47.977Z,100521.81
2024-05-09T20:19:54.723Z,100530.81
2024-05-09T20:24:58.534Z,100526.84
2024-05-09T20:30:02.393Z,100546.13
2024-05-09T20:35:06.455Z,100552.06
2024-05-09T20:40:18.190Z,100548.09
2024-05-09T20:45:30.362Z,100576.19
2024-05-09T20:50:39.317Z,100552.00
2024-05-09T20:55:48.352Z,100569.94
2024-05-09T21:00:52.514Z,100578.50
2024-05-09T21:05:58.586Z,100554.19
2024-05-09T21:11:03.436Z,100575.16
2024-05-09T21:16:11.103Z,100570.75
2024-05-09T21:21:15.479Z,100580.09
2024-05-09T21:26:24.158Z,100587.47
2024-05-09T21:31:28.159Z,100578.69
2024-05-09T21:36:35.395Z,100605.72
2024-05-09T21:41:39.291Z,100586.78
2024-05-09T21:46:43.582Z,100598.94
2024-05-09T21:51:49.802Z,100607.81
2024-05-09T21:56:56.750Z,100599.19
2024-05-09T22:02:00.530Z,100599.19
2024-05-09T22:07:06.260Z,100611.03
2024-05-09T22:12:10.091Z,100595.03
2024-05-09T22:17:14.076Z,100598.03
2024-05-09T22:22:17.631Z,100598.88
2024-05-09T22:27:21.236Z,100616.50
2024-05-09T22:32:24.929Z,100608.31
2024-05-09T22:37:28.721Z,100618.63
2024-05-09T22:42:32.307Z,100617.47
2024-05-09T22:47:36.087Z,100592.00
2024-05-09T22:52:40.058Z,100610.63
2024-05-09T22:57:43.756Z,100607.13
2024-05-09T23:02:47.534Z,100614.41
2024-05-09T23:07:51.323Z,100617.25
2024-05-09T23:12:55.713Z,100625.53
2024-05-09T23:17:59.547Z,100634.22
2024-05-09T23:23:03.478Z,100627.72
2024-05-09T23:28:07.898Z,100613.22
2024-05-09T23:33:13.449Z,100634.88
2024-05-09T23:38:19.527Z,100630.84
2024-05-09T23:43:25.718Z,100615.19
2024-05-09T23:48:30.727Z,100625.50
2024-05-09T23:53:34.284Z,100610.50
2024-05-09T23:58:37.675Z,100625.50
